sensor_id;sensor_type;location;lat;lon;timestamp;P1;durP1;ratioP1;P2;durP2;ratioP2
63050;SDS011;49136;47.416;19.402;2023-05-31T00:01:02;15.15;;;7.10;;
63050;SDS011;49136;47.416;19.402;2023-05-31T00:03:27;12.32;;;6.75;;
63050;SDS011;49136;47.416;19.402;2023-05-31T00:05:53;14.77;;;6.90;;
63050;SDS011;49136;47.416;19.402;2023-05-31T00:08:18;13.93;;;7.30;;
63050;SDS011;49136;47.416;19.402;2023-05-31T00:10:44;16.48;;;7.25;;
63050;SDS011;49136;47.416;19.402;2023-05-31T00:13:09;11.85;;;6.90;;
63050;SDS011;49136;47.416;19.402;2023-05-31T00:15:35;14.70;;;7.20;;
63050;SDS011;49136;47.416;19.402;2023-05-31T00:18:01;22.35;;;7.55;;
63050;SDS011;49136;47.416;19.402;2023-05-31T00:20:26;16.23;;;7.35;;
63050;SDS011;49136;47.416;19.402;2023-05-31T00:22:51;14.82;;;7.47;;
63050;SDS011;49136;47.416;19.402;2023-05-31T00:25:17;17.13;;;7.38;;
63050;SDS011;49136;47.416;19.402;2023-05-31T00:27:42;11.40;;;7.38;;
63050;SDS011;49136;47.416;19.402;2023-05-31T00:30:08;13.68;;;7.18;;
63050;SDS011;49136;47.416;19.402;2023-05-31T00:32:34;12.13;;;6.97;;
63050;SDS011;49136;47.416;19.402;2023-05-31T00:34:59;14.40;;;7.32;;
63050;SDS011;49136;47.416;19.402;2023-05-31T00:37:25;17.25;;;8.40;;
63050;SDS011;49136;47.416;19.402;2023-05-31T00:39:51;15.70;;;7.85;;
63050;SDS011;49136;47.416;19.402;2023-05-31T00:42:16;12.48;;;6.95;;
63050;SDS011;49136;47.416;19.402;2023-05-31T00:44:42;14.65;;;7.38;;
63050;SDS011;49136;47.416;19.402;2023-05-31T00:47:07;16.88;;;6.88;;
63050;SDS011;49136;47.416;19.402;2023-05-31T00:49:33;17.55;;;6.93;;
63050;SDS011;49136;47.416;19.402;2023-05-31T00:51:59;11.55;;;6.60;;
63050;SDS011;49136;47.416;19.402;2023-05-31T00:54:25;13.30;;;5.72;;
63050;SDS011;49136;47.416;19.402;2023-05-31T00:56:50;20.70;;;7.05;;
63050;SDS011;49136;47.416;19.402;2023-05-31T00:59:16;12.20;;;5.68;;
63050;SDS011;49136;47.416;19.402;2023-05-31T01:01:42;14.63;;;6.00;;
63050;SDS011;49136;47.416;19.402;2023-05-31T01:04:08;13.95;;;6.38;;
63050;SDS011;49136;47.416;19.402;2023-05-31T01:06:34;16.60;;;6.38;;
63050;SDS011;49136;47.416;19.402;2023-05-31T01:09:03;10.27;;;6.05;;
63050;SDS011;49136;47.416;19.402;2023-05-31T01:19:54;13.13;;;6.32;;
63050;SDS011;49136;47.416;19.402;2023-05-31T01:28:03;14.25;;;6.13;;
63050;SDS011;49136;47.416;19.402;2023-05-31T01:30:32;12.95;;;5.80;;
63050;SDS011;49136;47.416;19.402;2023-05-31T01:33:00;15.00;;;5.95;;
63050;SDS011;49136;47.416;19.402;2023-05-31T01:35:25;10.48;;;5.38;;
63050;SDS011;49136;47.416;19.402;2023-05-31T01:37:52;14.75;;;6.82;;
63050;SDS011;49136;47.416;19.402;2023-05-31T01:40:18;10.80;;;5.90;;
63050;SDS011;49136;47.416;19.402;2023-05-31T01:42:43;16.13;;;6.15;;
63050;SDS011;49136;47.416;19.402;2023-05-31T01:45:10;11.35;;;6.03;;
63050;SDS011;49136;47.416;19.402;2023-05-31T01:47:37;12.32;;;5.07;;
63050;SDS011;49136;47.416;19.402;2023-05-31T01:50:06;13.40;;;5.88;;
63050;SDS011;49136;47.416;19.402;2023-05-31T01:52:33;11.35;;;6.13;;
63050;SDS011;49136;47.416;19.402;2023-05-31T01:55:00;12.55;;;5.55;;
63050;SDS011;49136;47.416;19.402;2023-05-31T01:57:27;12.25;;;5.88;;
63050;SDS011;49136;47.416;19.402;2023-05-31T01:59:54;11.00;;;5.32;;
63050;SDS011;49136;47.416;19.402;2023-05-31T02:02:21;10.40;;;6.00;;
63050;SDS011;49136;47.416;19.402;2023-05-31T02:04:48;11.48;;;6.05;;
63050;SDS011;49136;47.416;19.402;2023-05-31T02:07:13;14.70;;;5.40;;
63050;SDS011;49136;47.416;19.402;2023-05-31T02:09:38;19.92;;;6.63;;
63050;SDS011;49136;47.416;19.402;2023-05-31T02:12:04;9.15;;;5.40;;
63050;SDS011;49136;47.416;19.402;2023-05-31T02:14:29;14.43;;;5.45;;
63050;SDS011;49136;47.416;19.402;2023-05-31T02:16:55;14.18;;;5.68;;
63050;SDS011;49136;47.416;19.402;2023-05-31T02:19:20;13.20;;;5.72;;
63050;SDS011;49136;47.416;19.402;2023-05-31T02:21:50;10.80;;;5.93;;
63050;SDS011;49136;47.416;19.402;2023-05-31T02:24:16;13.50;;;5.85;;
63050;SDS011;49136;47.416;19.402;2023-05-31T02:26:41;14.73;;;6.03;;
63050;SDS011;49136;47.416;19.402;2023-05-31T02:29:07;9.43;;;5.40;;
63050;SDS011;49136;47.416;19.402;2023-05-31T02:31:32;13.02;;;5.25;;
63050;SDS011;49136;47.416;19.402;2023-05-31T02:33:58;17.80;;;5.53;;
63050;SDS011;49136;47.416;19.402;2023-05-31T02:36:23;16.10;;;6.20;;
63050;SDS011;49136;47.416;19.402;2023-05-31T02:38:53;9.00;;;5.72;;
63050;SDS011;49136;47.416;19.402;2023-05-31T02:41:19;13.07;;;5.82;;
63050;SDS011;49136;47.416;19.402;2023-05-31T02:43:45;16.20;;;5.55;;
63050;SDS011;49136;47.416;19.402;2023-05-31T02:46:10;10.75;;;5.18;;
63050;SDS011;49136;47.416;19.402;2023-05-31T02:48:36;11.88;;;5.90;;
63050;SDS011;49136;47.416;19.402;2023-05-31T02:51:01;12.68;;;5.80;;
63050;SDS011;49136;47.416;19.402;2023-05-31T02:53:27;14.13;;;6.20;;
63050;SDS011;49136;47.416;19.402;2023-05-31T02:55:54;14.77;;;6.07;;
63050;SDS011;49136;47.416;19.402;2023-05-31T02:58:20;13.85;;;6.10;;
63050;SDS011;49136;47.416;19.402;2023-05-31T03:00:45;16.73;;;5.93;;
63050;SDS011;49136;47.416;19.402;2023-05-31T03:03:11;11.40;;;5.20;;
63050;SDS011;49136;47.416;19.402;2023-05-31T03:05:37;10.18;;;4.78;;
63050;SDS011;49136;47.416;19.402;2023-05-31T03:08:03;13.32;;;5.90;;
63050;SDS011;49136;47.416;19.402;2023-05-31T03:10:28;9.65;;;5.47;;
63050;SDS011;49136;47.416;19.402;2023-05-31T03:12:54;13.18;;;5.95;;
63050;SDS011;49136;47.416;19.402;2023-05-31T03:15:19;12.30;;;6.25;;
63050;SDS011;49136;47.416;19.402;2023-05-31T03:17:45;18.98;;;6.28;;
63050;SDS011;49136;47.416;19.402;2023-05-31T03:20:10;15.27;;;5.18;;
63050;SDS011;49136;47.416;19.402;2023-05-31T03:22:36;9.07;;;5.32;;
63050;SDS011;49136;47.416;19.402;2023-05-31T03:25:02;11.57;;;5.43;;
63050;SDS011;49136;47.416;19.402;2023-05-31T03:27:29;14.13;;;5.43;;
63050;SDS011;49136;47.416;19.402;2023-05-31T03:29:55;12.27;;;6.22;;
63050;SDS011;49136;47.416;19.402;2023-05-31T03:32:21;11.25;;;5.00;;
63050;SDS011;49136;47.416;19.402;2023-05-31T03:34:46;15.50;;;6.40;;
63050;SDS011;49136;47.416;19.402;2023-05-31T03:37:12;10.68;;;5.00;;
63050;SDS011;49136;47.416;19.402;2023-05-31T03:39:37;14.60;;;5.47;;
63050;SDS011;49136;47.416;19.402;2023-05-31T03:42:03;17.10;;;6.03;;
63050;SDS011;49136;47.416;19.402;2023-05-31T03:44:28;15.68;;;5.65;;
63050;SDS011;49136;47.416;19.402;2023-05-31T03:46:54;12.90;;;5.50;;
63050;SDS011;49136;47.416;19.402;2023-05-31T03:49:19;15.77;;;6.13;;
63050;SDS011;49136;47.416;19.402;2023-05-31T03:51:45;13.57;;;6.22;;
63050;SDS011;49136;47.416;19.402;2023-05-31T03:54:10;12.88;;;5.55;;
63050;SDS011;49136;47.416;19.402;2023-05-31T03:56:35;14.57;;;5.55;;
63050;SDS011;49136;47.416;19.402;2023-05-31T03:59:01;16.05;;;5.40;;
63050;SDS011;49136;47.416;19.402;2023-05-31T04:01:27;9.23;;;5.15;;
63050;SDS011;49136;47.416;19.402;2023-05-31T04:03:52;11.52;;;5.60;;
63050;SDS011;49136;47.416;19.402;2023-05-31T04:06:18;14.30;;;5.10;;
63050;SDS011;49136;47.416;19.402;2023-05-31T04:08:43;10.70;;;5.55;;
63050;SDS011;49136;47.416;19.402;2023-05-31T04:11:08;12.80;;;6.50;;
63050;SDS011;49136;47.416;19.402;2023-05-31T04:13:34;9.80;;;4.95;;
63050;SDS011;49136;47.416;19.402;2023-05-31T04:16:00;14.43;;;5.45;;
63050;SDS011;49136;47.416;19.402;2023-05-31T04:18:25;11.88;;;5.13;;
63050;SDS011;49136;47.416;19.402;2023-05-31T04:20:50;13.60;;;5.28;;
63050;SDS011;49136;47.416;19.402;2023-05-31T04:23:16;11.23;;;5.28;;
63050;SDS011;49136;47.416;19.402;2023-05-31T04:25:41;14.38;;;4.80;;
63050;SDS011;49136;47.416;19.402;2023-05-31T04:28:09;8.43;;;4.97;;
63050;SDS011;49136;47.416;19.402;2023-05-31T04:30:36;9.60;;;5.15;;
63050;SDS011;49136;47.416;19.402;2023-05-31T04:33:02;11.57;;;4.82;;
63050;SDS011;49136;47.416;19.402;2023-05-31T04:35:30;20.90;;;5.57;;
63050;SDS011;49136;47.416;19.402;2023-05-31T04:37:55;13.07;;;4.53;;
63050;SDS011;49136;47.416;19.402;2023-05-31T04:40:24;12.77;;;5.32;;
63050;SDS011;49136;47.416;19.402;2023-05-31T04:42:51;8.55;;;4.72;;
63050;SDS011;49136;47.416;19.402;2023-05-31T04:45:16;10.88;;;4.93;;
63050;SDS011;49136;47.416;19.402;2023-05-31T04:47:42;10.52;;;4.65;;
63050;SDS011;49136;47.416;19.402;2023-05-31T04:50:10;9.68;;;4.65;;
63050;SDS011;49136;47.416;19.402;2023-05-31T04:52:36;14.88;;;5.07;;
63050;SDS011;49136;47.416;19.402;2023-05-31T04:55:05;11.02;;;4.53;;
63050;SDS011;49136;47.416;19.402;2023-05-31T04:57:31;8.50;;;5.07;;
63050;SDS011;49136;47.416;19.402;2023-05-31T04:59:57;13.55;;;4.63;;
63050;SDS011;49136;47.416;19.402;2023-05-31T05:02:22;8.45;;;4.63;;
63050;SDS011;49136;47.416;19.402;2023-05-31T05:04:51;13.48;;;4.20;;
63050;SDS011;49136;47.416;19.402;2023-05-31T05:07:19;11.43;;;4.70;;
63050;SDS011;49136;47.416;19.402;2023-05-31T05:09:46;12.10;;;5.05;;
63050;SDS011;49136;47.416;19.402;2023-05-31T05:12:13;10.10;;;5.28;;
63050;SDS011;49136;47.416;19.402;2023-05-31T05:14:38;11.07;;;4.22;;
63050;SDS011;49136;47.416;19.402;2023-05-31T05:17:04;14.23;;;5.20;;
63050;SDS011;49136;47.416;19.402;2023-05-31T05:19:44;9.88;;;4.55;;
63050;SDS011;49136;47.416;19.402;2023-05-31T05:22:09;16.45;;;5.38;;
63050;SDS011;49136;47.416;19.402;2023-05-31T05:24:35;14.35;;;4.78;;
63050;SDS011;49136;47.416;19.402;2023-05-31T05:27:01;21.65;;;4.93;;
63050;SDS011;49136;47.416;19.402;2023-05-31T05:29:27;24.48;;;5.15;;
63050;SDS011;49136;47.416;19.402;2023-05-31T05:31:53;13.05;;;4.80;;
63050;SDS011;49136;47.416;19.402;2023-05-31T05:34:18;16.40;;;4.40;;
63050;SDS011;49136;47.416;19.402;2023-05-31T05:36:46;14.13;;;4.53;;
63050;SDS011;49136;47.416;19.402;2023-05-31T05:39:12;14.10;;;4.28;;
63050;SDS011;49136;47.416;19.402;2023-05-31T05:41:37;14.98;;;4.70;;
63050;SDS011;49136;47.416;19.402;2023-05-31T05:44:02;12.07;;;3.60;;
63050;SDS011;49136;47.416;19.402;2023-05-31T05:46:28;13.68;;;4.40;;
63050;SDS011;49136;47.416;19.402;2023-05-31T05:48:53;20.73;;;4.93;;
63050;SDS011;49136;47.416;19.402;2023-05-31T05:51:19;7.07;;;4.30;;
63050;SDS011;49136;47.416;19.402;2023-05-31T05:53:44;11.77;;;4.60;;
63050;SDS011;49136;47.416;19.402;2023-05-31T05:56:10;17.88;;;5.00;;
63050;SDS011;49136;47.416;19.402;2023-05-31T05:58:44;8.18;;;4.22;;
63050;SDS011;49136;47.416;19.402;2023-05-31T06:01:11;14.02;;;5.30;;
63050;SDS011;49136;47.416;19.402;2023-05-31T06:03:38;10.68;;;4.65;;
63050;SDS011;49136;47.416;19.402;2023-05-31T06:06:04;8.13;;;4.78;;
63050;SDS011;49136;47.416;19.402;2023-05-31T06:08:30;11.45;;;4.35;;
63050;SDS011;49136;47.416;19.402;2023-05-31T06:10:55;11.90;;;4.35;;
63050;SDS011;49136;47.416;19.402;2023-05-31T06:13:21;14.65;;;4.60;;
63050;SDS011;49136;47.416;19.402;2023-05-31T06:15:46;9.15;;;4.30;;
63050;SDS011;49136;47.416;19.402;2023-05-31T06:18:11;13.55;;;4.07;;
63050;SDS011;49136;47.416;19.402;2023-05-31T06:20:37;9.65;;;4.60;;
63050;SDS011;49136;47.416;19.402;2023-05-31T06:23:02;23.08;;;4.88;;
63050;SDS011;49136;47.416;19.402;2023-05-31T06:25:28;10.65;;;4.70;;
63050;SDS011;49136;47.416;19.402;2023-05-31T06:27:54;9.52;;;4.35;;
63050;SDS011;49136;47.416;19.402;2023-05-31T06:30:22;15.13;;;4.28;;
63050;SDS011;49136;47.416;19.402;2023-05-31T06:32:47;10.20;;;5.15;;
63050;SDS011;49136;47.416;19.402;2023-05-31T06:35:13;8.27;;;4.18;;
63050;SDS011;49136;47.416;19.402;2023-05-31T06:37:38;12.63;;;4.63;;
63050;SDS011;49136;47.416;19.402;2023-05-31T06:40:04;10.40;;;4.97;;
63050;SDS011;49136;47.416;19.402;2023-05-31T06:42:32;14.85;;;4.65;;
63050;SDS011;49136;47.416;19.402;2023-05-31T06:44:57;8.32;;;4.63;;
63050;SDS011;49136;47.416;19.402;2023-05-31T06:47:23;12.77;;;4.97;;
63050;SDS011;49136;47.416;19.402;2023-05-31T06:49:48;11.27;;;4.75;;
63050;SDS011;49136;47.416;19.402;2023-05-31T06:52:14;12.13;;;4.55;;
63050;SDS011;49136;47.416;19.402;2023-05-31T06:54:40;11.57;;;4.35;;
63050;SDS011;49136;47.416;19.402;2023-05-31T06:57:07;11.23;;;4.30;;
63050;SDS011;49136;47.416;19.402;2023-05-31T06:59:33;16.85;;;4.40;;
63050;SDS011;49136;47.416;19.402;2023-05-31T07:01:58;8.98;;;4.35;;
63050;SDS011;49136;47.416;19.402;2023-05-31T07:04:24;10.93;;;4.57;;
63050;SDS011;49136;47.416;19.402;2023-05-31T07:06:49;9.45;;;5.03;;
63050;SDS011;49136;47.416;19.402;2023-05-31T07:09:15;9.52;;;4.20;;
63050;SDS011;49136;47.416;19.402;2023-05-31T07:11:41;7.25;;;4.05;;
63050;SDS011;49136;47.416;19.402;2023-05-31T07:14:07;14.13;;;4.40;;
63050;SDS011;49136;47.416;19.402;2023-05-31T07:16:33;13.63;;;4.60;;
63050;SDS011;49136;47.416;19.402;2023-05-31T07:18:58;10.32;;;5.07;;
63050;SDS011;49136;47.416;19.402;2023-05-31T07:21:23;12.40;;;4.75;;
63050;SDS011;49136;47.416;19.402;2023-05-31T07:23:49;19.02;;;4.45;;
63050;SDS011;49136;47.416;19.402;2023-05-31T07:26:15;13.13;;;4.93;;
63050;SDS011;49136;47.416;19.402;2023-05-31T07:28:41;11.57;;;4.40;;
63050;SDS011;49136;47.416;19.402;2023-05-31T07:31:07;14.35;;;4.15;;
63050;SDS011;49136;47.416;19.402;2023-05-31T07:33:33;10.88;;;4.45;;
63050;SDS011;49136;47.416;19.402;2023-05-31T07:35:58;12.25;;;4.15;;
63050;SDS011;49136;47.416;19.402;2023-05-31T07:38:27;12.82;;;4.20;;
63050;SDS011;49136;47.416;19.402;2023-05-31T07:40:53;14.48;;;4.45;;
63050;SDS011;49136;47.416;19.402;2023-05-31T07:43:19;10.95;;;4.47;;
63050;SDS011;49136;47.416;19.402;2023-05-31T07:45:47;15.35;;;4.40;;
63050;SDS011;49136;47.416;19.402;2023-05-31T07:48:13;11.75;;;4.90;;
63050;SDS011;49136;47.416;19.402;2023-05-31T07:50:38;10.18;;;4.57;;
63050;SDS011;49136;47.416;19.402;2023-05-31T07:53:04;11.68;;;5.72;;
63050;SDS011;49136;47.416;19.402;2023-05-31T07:55:29;10.35;;;4.30;;
63050;SDS011;49136;47.416;19.402;2023-05-31T07:57:55;14.18;;;4.63;;
63050;SDS011;49136;47.416;19.402;2023-05-31T08:00:20;11.10;;;4.68;;
63050;SDS011;49136;47.416;19.402;2023-05-31T08:02:45;8.70;;;4.30;;
63050;SDS011;49136;47.416;19.402;2023-05-31T08:05:12;7.03;;;3.58;;
63050;SDS011;49136;47.416;19.402;2023-05-31T08:07:38;14.93;;;3.95;;
63050;SDS011;49136;47.416;19.402;2023-05-31T08:10:03;24.77;;;4.75;;
63050;SDS011;49136;47.416;19.402;2023-05-31T08:12:30;9.90;;;3.92;;
63050;SDS011;49136;47.416;19.402;2023-05-31T08:14:56;6.93;;;4.43;;
63050;SDS011;49136;47.416;19.402;2023-05-31T08:17:21;8.32;;;4.47;;
63050;SDS011;49136;47.416;19.402;2023-05-31T08:19:47;11.65;;;4.20;;
63050;SDS011;49136;47.416;19.402;2023-05-31T08:22:12;8.25;;;3.92;;
63050;SDS011;49136;47.416;19.402;2023-05-31T08:24:37;7.97;;;3.85;;
63050;SDS011;49136;47.416;19.402;2023-05-31T08:27:03;9.80;;;4.10;;
63050;SDS011;49136;47.416;19.402;2023-05-31T08:29:28;8.05;;;4.00;;
63050;SDS011;49136;47.416;19.402;2023-05-31T08:31:55;21.10;;;4.00;;
63050;SDS011;49136;47.416;19.402;2023-05-31T08:34:20;11.05;;;4.07;;
63050;SDS011;49136;47.416;19.402;2023-05-31T08:36:46;6.65;;;3.90;;
63050;SDS011;49136;47.416;19.402;2023-05-31T08:39:12;9.50;;;4.40;;
63050;SDS011;49136;47.416;19.402;2023-05-31T08:41:41;12.52;;;4.05;;
63050;SDS011;49136;47.416;19.402;2023-05-31T08:44:14;12.77;;;3.88;;
63050;SDS011;49136;47.416;19.402;2023-05-31T08:46:42;8.80;;;4.50;;
63050;SDS011;49136;47.416;19.402;2023-05-31T08:49:10;9.70;;;4.15;;
63050;SDS011;49136;47.416;19.402;2023-05-31T08:51:37;10.80;;;3.90;;
63050;SDS011;49136;47.416;19.402;2023-05-31T08:54:05;10.38;;;3.83;;
63050;SDS011;49136;47.416;19.402;2023-05-31T08:56:31;8.82;;;3.60;;
63050;SDS011;49136;47.416;19.402;2023-05-31T08:58:58;8.98;;;3.80;;
63050;SDS011;49136;47.416;19.402;2023-05-31T09:01:24;8.55;;;4.15;;
63050;SDS011;49136;47.416;19.402;2023-05-31T09:03:52;12.10;;;4.10;;
63050;SDS011;49136;47.416;19.402;2023-05-31T09:06:18;12.68;;;3.90;;
63050;SDS011;49136;47.416;19.402;2023-05-31T09:08:44;21.52;;;4.90;;
63050;SDS011;49136;47.416;19.402;2023-05-31T09:11:09;11.25;;;3.85;;
63050;SDS011;49136;47.416;19.402;2023-05-31T09:13:37;11.27;;;3.72;;
63050;SDS011;49136;47.416;19.402;2023-05-31T09:16:02;7.55;;;3.70;;
63050;SDS011;49136;47.416;19.402;2023-05-31T09:18:30;8.32;;;4.22;;
63050;SDS011;49136;47.416;19.402;2023-05-31T09:21:07;13.57;;;4.18;;
63050;SDS011;49136;47.416;19.402;2023-05-31T09:23:33;9.50;;;3.55;;
63050;SDS011;49136;47.416;19.402;2023-05-31T09:26:01;9.80;;;3.92;;
63050;SDS011;49136;47.416;19.402;2023-05-31T09:28:30;6.95;;;3.75;;
63050;SDS011;49136;47.416;19.402;2023-05-31T09:31:03;8.55;;;3.63;;
63050;SDS011;49136;47.416;19.402;2023-05-31T09:38:58;9.50;;;3.42;;
63050;SDS011;49136;47.416;19.402;2023-05-31T09:41:34;17.15;;;4.53;;
63050;SDS011;49136;47.416;19.402;2023-05-31T09:44:00;11.57;;;4.25;;
63050;SDS011;49136;47.416;19.402;2023-05-31T09:46:26;12.90;;;3.67;;
63050;SDS011;49136;47.416;19.402;2023-05-31T09:48:59;9.20;;;3.83;;
63050;SDS011;49136;47.416;19.402;2023-05-31T09:51:26;10.10;;;4.22;;
63050;SDS011;49136;47.416;19.402;2023-05-31T09:53:51;13.02;;;4.03;;
63050;SDS011;49136;47.416;19.402;2023-05-31T09:56:20;11.02;;;4.30;;
63050;SDS011;49136;47.416;19.402;2023-05-31T09:58:48;8.73;;;4.28;;
63050;SDS011;49136;47.416;19.402;2023-05-31T10:01:17;13.48;;;4.28;;
63050;SDS011;49136;47.416;19.402;2023-05-31T10:03:43;9.65;;;4.03;;
63050;SDS011;49136;47.416;19.402;2023-05-31T10:06:09;18.02;;;4.15;;
63050;SDS011;49136;47.416;19.402;2023-05-31T10:08:37;7.18;;;3.72;;
63050;SDS011;49136;47.416;19.402;2023-05-31T10:11:03;6.28;;;3.70;;
63050;SDS011;49136;47.416;19.402;2023-05-31T10:13:29;9.27;;;4.32;;
63050;SDS011;49136;47.416;19.402;2023-05-31T10:15:59;14.32;;;3.60;;
63050;SDS011;49136;47.416;19.402;2023-05-31T10:18:31;8.77;;;4.30;;
63050;SDS011;49136;47.416;19.402;2023-05-31T10:23:45;12.57;;;4.35;;
63050;SDS011;49136;47.416;19.402;2023-05-31T10:26:20;14.52;;;3.97;;
63050;SDS011;49136;47.416;19.402;2023-05-31T10:28:50;9.65;;;4.22;;
63050;SDS011;49136;47.416;19.402;2023-05-31T10:31:36;8.18;;;3.83;;
63050;SDS011;49136;47.416;19.402;2023-05-31T10:34:26;7.53;;;3.78;;
63050;SDS011;49136;47.416;19.402;2023-05-31T10:36:54;8.70;;;4.20;;
63050;SDS011;49136;47.416;19.402;2023-05-31T10:42:34;18.38;;;4.38;;
63050;SDS011;49136;47.416;19.402;2023-05-31T10:45:15;10.15;;;4.78;;
63050;SDS011;49136;47.416;19.402;2023-05-31T10:48:01;8.68;;;4.57;;
63050;SDS011;49136;47.416;19.402;2023-05-31T10:50:45;13.30;;;3.60;;
63050;SDS011;49136;47.416;19.402;2023-05-31T10:53:19;13.55;;;4.35;;
63050;SDS011;49136;47.416;19.402;2023-05-31T10:55:46;7.32;;;4.32;;
63050;SDS011;49136;47.416;19.402;2023-05-31T11:01:02;12.85;;;5.20;;
63050;SDS011;49136;47.416;19.402;2023-05-31T11:03:48;9.27;;;3.78;;
63050;SDS011;49136;47.416;19.402;2023-05-31T11:08:58;7.25;;;3.92;;
63050;SDS011;49136;47.416;19.402;2023-05-31T11:14:08;8.38;;;4.07;;
63050;SDS011;49136;47.416;19.402;2023-05-31T11:19:14;9.15;;;4.10;;
63050;SDS011;49136;47.416;19.402;2023-05-31T11:21:50;9.25;;;4.07;;
63050;SDS011;49136;47.416;19.402;2023-05-31T11:24:36;8.07;;;4.05;;
63050;SDS011;49136;47.416;19.402;2023-05-31T11:27:15;14.63;;;4.28;;
63050;SDS011;49136;47.416;19.402;2023-05-31T11:32:16;9.30;;;5.30;;
63050;SDS011;49136;47.416;19.402;2023-05-31T11:35:13;9.18;;;4.65;;
63050;SDS011;49136;47.416;19.402;2023-05-31T11:37:40;14.80;;;4.72;;
63050;SDS011;49136;47.416;19.402;2023-05-31T11:42:35;6.88;;;3.85;;
63050;SDS011;49136;47.416;19.402;2023-05-31T11:45:08;6.80;;;4.35;;
63050;SDS011;49136;47.416;19.402;2023-05-31T11:50:10;13.63;;;4.63;;
63050;SDS011;49136;47.416;19.402;2023-05-31T11:52:38;9.52;;;3.60;;
63050;SDS011;49136;47.416;19.402;2023-05-31T11:55:05;8.32;;;3.97;;
63050;SDS011;49136;47.416;19.402;2023-05-31T11:57:31;13.23;;;4.35;;
63050;SDS011;49136;47.416;19.402;2023-05-31T12:00:07;11.95;;;4.45;;
63050;SDS011;49136;47.416;19.402;2023-05-31T12:02:35;9.35;;;4.13;;
63050;SDS011;49136;47.416;19.402;2023-05-31T12:05:01;10.25;;;4.75;;
63050;SDS011;49136;47.416;19.402;2023-05-31T12:07:28;10.18;;;4.85;;
63050;SDS011;49136;47.416;19.402;2023-05-31T12:09:54;8.88;;;4.50;;
63050;SDS011;49136;47.416;19.402;2023-05-31T12:12:19;10.35;;;4.60;;
63050;SDS011;49136;47.416;19.402;2023-05-31T12:14:51;13.80;;;4.80;;
63050;SDS011;49136;47.416;19.402;2023-05-31T12:17:18;8.77;;;5.07;;
63050;SDS011;49136;47.416;19.402;2023-05-31T12:19:44;8.95;;;4.15;;
63050;SDS011;49136;47.416;19.402;2023-05-31T12:22:15;12.20;;;4.30;;
63050;SDS011;49136;47.416;19.402;2023-05-31T12:24:47;11.88;;;4.40;;
63050;SDS011;49136;47.416;19.402;2023-05-31T12:27:20;9.45;;;4.60;;
63050;SDS011;49136;47.416;19.402;2023-05-31T12:29:47;13.90;;;4.63;;
63050;SDS011;49136;47.416;19.402;2023-05-31T12:32:12;12.27;;;5.07;;
63050;SDS011;49136;47.416;19.402;2023-05-31T12:34:38;14.88;;;4.88;;
63050;SDS011;49136;47.416;19.402;2023-05-31T12:37:08;10.73;;;4.80;;
63050;SDS011;49136;47.416;19.402;2023-05-31T12:39:35;9.05;;;3.83;;
63050;SDS011;49136;47.416;19.402;2023-05-31T12:42:01;11.80;;;4.78;;
63050;SDS011;49136;47.416;19.402;2023-05-31T12:44:29;7.93;;;4.70;;
63050;SDS011;49136;47.416;19.402;2023-05-31T12:47:00;8.00;;;4.40;;
63050;SDS011;49136;47.416;19.402;2023-05-31T12:49:31;14.00;;;4.70;;
63050;SDS011;49136;47.416;19.402;2023-05-31T12:52:07;9.43;;;4.95;;
63050;SDS011;49136;47.416;19.402;2023-05-31T12:54:39;9.48;;;4.93;;
63050;SDS011;49136;47.416;19.402;2023-05-31T12:57:05;14.48;;;5.00;;
63050;SDS011;49136;47.416;19.402;2023-05-31T12:59:34;10.27;;;4.78;;
63050;SDS011;49136;47.416;19.402;2023-05-31T13:02:01;6.32;;;3.97;;
63050;SDS011;49136;47.416;19.402;2023-05-31T13:04:30;9.82;;;5.13;;
63050;SDS011;49136;47.416;19.402;2023-05-31T13:06:56;7.97;;;4.20;;
63050;SDS011;49136;47.416;19.402;2023-05-31T13:09:26;7.47;;;4.85;;
63050;SDS011;49136;47.416;19.402;2023-05-31T13:11:52;10.23;;;4.88;;
63050;SDS011;49136;47.416;19.402;2023-05-31T13:14:18;14.50;;;5.10;;
63050;SDS011;49136;47.416;19.402;2023-05-31T13:16:45;8.25;;;4.57;;
63050;SDS011;49136;47.416;19.402;2023-05-31T13:19:11;9.45;;;4.95;;
63050;SDS011;49136;47.416;19.402;2023-05-31T13:21:37;14.18;;;4.65;;
63050;SDS011;49136;47.416;19.402;2023-05-31T13:24:04;12.95;;;4.88;;
63050;SDS011;49136;47.416;19.402;2023-05-31T13:26:31;7.18;;;4.55;;
63050;SDS011;49136;47.416;19.402;2023-05-31T13:28:57;14.23;;;5.47;;
63050;SDS011;49136;47.416;19.402;2023-05-31T13:31:27;8.85;;;4.93;;
63050;SDS011;49136;47.416;19.402;2023-05-31T13:33:53;9.82;;;5.15;;
63050;SDS011;49136;47.416;19.402;2023-05-31T13:36:19;12.32;;;4.80;;
63050;SDS011;49136;47.416;19.402;2023-05-31T13:38:45;8.55;;;4.93;;
63050;SDS011;49136;47.416;19.402;2023-05-31T13:41:11;10.48;;;4.88;;
63050;SDS011;49136;47.416;19.402;2023-05-31T13:43:36;15.73;;;4.85;;
63050;SDS011;49136;47.416;19.402;2023-05-31T13:46:02;13.80;;;5.55;;
63050;SDS011;49136;47.416;19.402;2023-05-31T13:48:36;7.93;;;4.78;;
63050;SDS011;49136;47.416;19.402;2023-05-31T13:51:02;10.93;;;4.75;;
63050;SDS011;49136;47.416;19.402;2023-05-31T13:53:28;11.50;;;5.18;;
63050;SDS011;49136;47.416;19.402;2023-05-31T13:55:54;10.38;;;4.85;;
63050;SDS011;49136;47.416;19.402;2023-05-31T13:58:21;7.53;;;4.53;;
63050;SDS011;49136;47.416;19.402;2023-05-31T14:00:47;9.93;;;4.60;;
63050;SDS011;49136;47.416;19.402;2023-05-31T14:03:12;18.27;;;5.22;;
63050;SDS011;49136;47.416;19.402;2023-05-31T14:05:38;6.63;;;4.47;;
63050;SDS011;49136;47.416;19.402;2023-05-31T14:08:04;11.93;;;4.75;;
63050;SDS011;49136;47.416;19.402;2023-05-31T14:10:31;12.60;;;5.78;;
63050;SDS011;49136;47.416;19.402;2023-05-31T14:12:56;7.45;;;4.40;;
63050;SDS011;49136;47.416;19.402;2023-05-31T14:15:22;12.82;;;5.32;;
63050;SDS011;49136;47.416;19.402;2023-05-31T14:17:47;9.02;;;4.75;;
63050;SDS011;49136;47.416;19.402;2023-05-31T14:20:13;7.35;;;5.03;;
63050;SDS011;49136;47.416;19.402;2023-05-31T14:22:38;7.70;;;4.68;;
63050;SDS011;49136;47.416;19.402;2023-05-31T14:25:04;11.65;;;4.88;;
63050;SDS011;49136;47.416;19.402;2023-05-31T14:27:30;8.65;;;4.95;;
63050;SDS011;49136;47.416;19.402;2023-05-31T14:29:56;13.35;;;4.75;;
63050;SDS011;49136;47.416;19.402;2023-05-31T14:32:21;10.00;;;4.57;;
63050;SDS011;49136;47.416;19.402;2023-05-31T14:34:47;7.65;;;4.57;;
63050;SDS011;49136;47.416;19.402;2023-05-31T14:37:13;18.00;;;5.88;;
63050;SDS011;49136;47.416;19.402;2023-05-31T14:39:38;14.95;;;5.47;;
63050;SDS011;49136;47.416;19.402;2023-05-31T14:42:04;15.30;;;6.88;;
63050;SDS011;49136;47.416;19.402;2023-05-31T14:44:34;9.30;;;4.85;;
63050;SDS011;49136;47.416;19.402;2023-05-31T14:47:02;8.07;;;4.63;;
63050;SDS011;49136;47.416;19.402;2023-05-31T14:49:28;9.57;;;4.53;;
63050;SDS011;49136;47.416;19.402;2023-05-31T14:51:54;9.80;;;4.80;;
63050;SDS011;49136;47.416;19.402;2023-05-31T14:54:22;9.75;;;5.05;;
63050;SDS011;49136;47.416;19.402;2023-05-31T14:56:48;9.07;;;4.65;;
63050;SDS011;49136;47.416;19.402;2023-05-31T14:59:13;7.45;;;4.35;;
63050;SDS011;49136;47.416;19.402;2023-05-31T15:01:39;11.32;;;5.00;;
63050;SDS011;49136;47.416;19.402;2023-05-31T15:04:10;8.85;;;4.80;;
63050;SDS011;49136;47.416;19.402;2023-05-31T15:06:40;12.85;;;5.07;;
63050;SDS011;49136;47.416;19.402;2023-05-31T15:09:07;7.70;;;4.60;;